Terminal Aerodrome Forecast
Issued by NWS Mt. Holly, NJ

Home | Current Version | Previous Version | Text Only | Print | Product List | Glossary On
Versions: 1 2 3 4 5 6 7 8 9 10 11 12 13 14 15 16 17
000
FTUS41 KPHI 231120
TAFACY
TAF
KACY 231120Z 2312/2412 18013KT P6SM OVC015 WS020/20045KT
      TEMPO 2312/2315 5SM SHRA BR OVC005
     FM231500 19013KT 3SM SHRA OVC010 WS020/20055KT
     FM231700 21013G22KT 3SM SHRA OVC015 WS020/21045KT
     FM231900 23010KT P6SM VCSH OVC015
     FM232100 23010KT P6SM BKN025
     FM232300 28010KT P6SM SCT080=

USA.gov is the U.S. government's official web portal to all federal, state and local government web resources and services.